Time;durP1;ratioP1;P1;durP2;ratioP2;P2;SDS_P1;SDS_P2;PMS_P1;PMS_P2;Temp;Humidity;BMP_temperature;BMP_pressure;BME280_temperature;BME280_humidity;BME280_pressure;Samples;Min_cycle;Max_cycle;Signal;HPM_P1;HPM_P2
2021/10/15 00:01:58;;;;;;;17.98;8.85;;;8.20;76.50;;;;;;5091540;28;20024;-78
2021/10/15 00:04:23;;;;;;;16.65;9.52;;;8.20;75.70;;;;;;5082113;28;20415;-78
2021/10/15 00:06:49;;;;;;;16.02;9.40;;;8.20;75.00;;;;;;5079246;28;20035;-78
2021/10/15 00:09:15;;;;;;;15.95;8.70;;;8.10;74.50;;;;;;5093007;28;20107;-78
2021/10/15 00:11:41;;;;;;;20.90;8.82;;;8.10;74.50;;;;;;5080325;28;20028;-78
2021/10/15 00:14:07;;;;;;;13.90;8.73;;;8.10;74.50;;;;;;5080075;28;20024;-78
2021/10/15 00:16:33;;;;;;;16.85;9.60;;;8.10;74.50;;;;;;5079876;28;20116;-78
2021/10/15 00:18:59;;;;;;;15.75;9.88;;;8.10;74.30;;;;;;5080003;28;20536;-78
2021/10/15 00:21:24;;;;;;;15.98;9.40;;;8.00;74.60;;;;;;5092192;28;20386;-78
2021/10/15 00:23:50;;;;;;;16.98;9.73;;;8.00;74.90;;;;;;5081349;28;20028;-78
2021/10/15 00:26:16;;;;;;;18.58;10.40;;;8.00;75.90;;;;;;5079892;28;20033;-78
2021/10/15 00:28:42;;;;;;;22.33;11.40;;;8.00;76.20;;;;;;5079789;28;20095;-78
2021/10/15 00:31:07;;;;;;;17.50;10.30;;;8.00;76.50;;;;;;5079560;28;20031;-78
2021/10/15 00:33:33;;;;;;;19.60;10.77;;;8.00;76.00;;;;;;5095604;28;20055;-78
2021/10/15 00:35:59;;;;;;;18.42;10.05;;;7.90;75.30;;;;;;5087604;28;20048;-78
2021/10/15 00:38:25;;;;;;;19.15;9.52;;;7.90;75.40;;;;;;5079709;28;20027;-78
2021/10/15 00:40:51;;;;;;;17.20;8.55;;;7.90;75.80;;;;;;5079647;28;20036;-78
2021/10/15 00:43:17;;;;;;;18.48;9.57;;;7.90;75.30;;;;;;5091936;28;20436;-78
2021/10/15 00:45:43;;;;;;;18.80;9.25;;;7.80;74.70;;;;;;5087297;28;20120;-78
2021/10/15 00:48:09;;;;;;;17.02;10.20;;;7.80;75.00;;;;;;5079356;28;20020;-78
2021/10/15 00:50:36;;;;;;;18.50;9.80;;;7.80;74.30;;;;;;5078419;28;20035;-78
2021/10/15 00:53:03;;;;;;;18.48;9.30;;;7.80;74.40;;;;;;5079195;28;20873;-78
2021/10/15 00:55:30;;;;;;;15.05;8.25;;;7.70;74.50;;;;;;5079348;28;20112;-78
2021/10/15 00:57:56;;;;;;;20.23;9.88;;;7.70;74.60;;;;;;5078278;28;20078;-78
2021/10/15 01:00:22;;;;;;;15.77;8.63;;;7.70;74.60;;;;;;5079106;28;20024;-78
2021/10/15 01:02:48;;;;;;;14.93;8.70;;;7.70;74.60;;;;;;5091268;28;20070;-78
2021/10/15 01:05:14;;;;;;;20.73;9.55;;;7.60;74.50;;;;;;5077280;28;20025;-78
2021/10/15 01:07:40;;;;;;;16.15;9.57;;;7.60;74.40;;;;;;5084383;28;20023;-78
2021/10/15 01:10:06;;;;;;;20.45;10.85;;;7.60;74.60;;;;;;5087549;28;20028;-78
2021/10/15 01:12:34;;;;;;;19.08;9.25;;;7.60;74.70;;;;;;5077457;28;20474;-78
2021/10/15 01:14:59;;;;;;;17.17;9.88;;;7.60;74.60;;;;;;5078904;28;20465;-78
2021/10/15 01:17:25;;;;;;;18.48;10.60;;;7.50;74.20;;;;;;5078564;28;20023;-78
2021/10/15 01:19:55;;;;;;;16.55;9.10;;;7.50;74.60;;;;;;5079117;28;20031;-78
2021/10/15 01:22:28;;;;;;;17.08;9.25;;;7.50;74.90;;;;;;5092044;28;20021;-78
2021/10/15 01:24:55;;;;;;;15.07;9.05;;;7.50;74.40;;;;;;5078565;28;20031;-78
2021/10/15 01:27:21;;;;;;;17.40;9.55;;;7.40;74.20;;;;;;5079067;28;20547;-78
2021/10/15 01:29:47;;;;;;;18.85;9.32;;;7.40;74.30;;;;;;5078807;28;20055;-78
2021/10/15 01:32:15;;;;;;;15.45;9.13;;;7.40;74.40;;;;;;5083034;28;20024;-78
2021/10/15 01:34:41;;;;;;;16.00;8.93;;;7.40;74.50;;;;;;5096326;28;20576;-78
2021/10/15 01:37:07;;;;;;;16.08;8.90;;;7.40;74.40;;;;;;5078363;28;20040;-78
2021/10/15 01:39:33;;;;;;;17.33;9.10;;;7.30;74.60;;;;;;5078276;28;20027;-78
2021/10/15 01:41:59;;;;;;;15.70;9.02;;;7.30;74.60;;;;;;5080124;28;20027;-78
2021/10/15 01:44:25;;;;;;;19.17;9.32;;;7.30;74.80;;;;;;5096651;28;20020;-78
2021/10/15 01:46:51;;;;;;;16.08;9.23;;;7.30;74.90;;;;;;5078327;28;20031;-78
2021/10/15 01:49:16;;;;;;;16.00;9.38;;;7.30;74.70;;;;;;5078232;28;20035;-79
2021/10/15 01:51:42;;;;;;;15.85;8.50;;;7.20;74.70;;;;;;5076981;28;20396;-78
2021/10/15 01:54:08;;;;;;;14.57;8.55;;;7.20;74.90;;;;;;5076837;28;20029;-78
2021/10/15 01:56:37;;;;;;;14.05;9.05;;;7.20;75.00;;;;;;5076770;28;20517;-78
2021/10/15 01:59:03;;;;;;;13.68;9.43;;;7.20;74.80;;;;;;5077834;28;20027;-78
2021/10/15 02:01:29;;;;;;;15.07;9.02;;;7.10;74.60;;;;;;5085357;28;20474;-78
2021/10/15 02:03:55;;;;;;;17.08;9.20;;;7.10;74.60;;;;;;5083712;28;20089;-78
2021/10/15 02:06:20;;;;;;;16.40;8.75;;;7.10;75.20;;;;;;5078299;28;20025;-78
2021/10/15 02:08:46;;;;;;;17.98;9.60;;;7.10;75.00;;;;;;5092047;28;21013;-79
2021/10/15 02:11:12;;;;;;;19.27;8.90;;;7.10;75.50;;;;;;5076608;28;20479;-78
2021/10/15 02:13:38;;;;;;;18.17;10.13;;;7.10;75.60;;;;;;5076549;28;20028;-78
2021/10/15 02:16:04;;;;;;;18.10;10.23;;;7.10;76.00;;;;;;5076815;28;20025;-78
2021/10/15 02:18:30;;;;;;;17.30;9.82;;;7.10;77.80;;;;;;5077686;28;20031;-78
2021/10/15 02:20:56;;;;;;;15.73;8.75;;;7.10;76.80;;;;;;5084378;28;20052;-78
2021/10/15 02:23:22;;;;;;;14.30;8.38;;;7.10;76.80;;;;;;5082899;28;20392;-78
2021/10/15 02:25:48;;;;;;;17.65;10.30;;;7.10;76.60;;;;;;5076236;28;20020;-79
2021/10/15 02:28:14;;;;;;;17.50;10.23;;;7.10;77.10;;;;;;5077533;28;20025;-78
2021/10/15 02:30:40;;;;;;;19.52;10.25;;;7.10;76.70;;;;;;5077552;28;20024;-78
2021/10/15 02:33:06;;;;;;;19.58;10.52;;;7.10;76.90;;;;;;5089491;28;20025;-78
2021/10/15 02:35:31;;;;;;;20.23;10.00;;;7.10;78.80;;;;;;5088925;28;20023;-79
2021/10/15 02:38:00;;;;;;;19.42;9.73;;;7.10;79.20;;;;;;5077436;28;20025;-79
2021/10/15 02:40:27;;;;;;;20.92;11.00;;;7.20;79.60;;;;;;5077425;28;20382;-78
2021/10/15 02:42:54;;;;;;;19.65;12.02;;;7.20;80.80;;;;;;5086672;28;20038;-78
2021/10/15 02:45:20;;;;;;;20.80;11.30;;;7.20;82.60;;;;;;5087704;28;20021;-78
2021/10/15 02:47:46;;;;;;;21.10;11.15;;;7.20;81.70;;;;;;5077338;28;20054;-78
2021/10/15 02:50:11;;;;;;;17.65;10.13;;;7.20;81.00;;;;;;5077408;28;20115;-78
2021/10/15 02:52:37;;;;;;;23.10;11.23;;;7.20;80.20;;;;;;5077168;28;20123;-78
2021/10/15 02:55:04;;;;;;;18.40;9.57;;;7.20;81.20;;;;;;5077159;28;20472;-78
2021/10/15 02:57:30;;;;;;;19.13;10.95;;;7.20;79.60;;;;;;5077265;28;20020;-78
2021/10/15 02:59:56;;;;;;;18.83;10.68;;;7.30;81.80;;;;;;5077239;28;20386;-78
2021/10/15 03:02:21;;;;;;;17.10;10.65;;;7.20;80.50;;;;;;5090584;28;20024;-78
2021/10/15 03:04:47;;;;;;;19.48;9.15;;;7.20;79.10;;;;;;5077632;28;20027;-78
2021/10/15 03:07:13;;;;;;;18.17;10.07;;;7.20;79.50;;;;;;5078459;28;20111;-78
2021/10/15 03:09:39;;;;;;;17.85;9.93;;;7.20;79.40;;;;;;5088738;28;20078;-78
2021/10/15 03:12:06;;;;;;;13.82;9.27;;;7.20;79.30;;;;;;5077176;28;20060;-78
2021/10/15 03:14:32;;;;;;;19.85;10.15;;;7.20;78.50;;;;;;5077226;28;20033;-78
2021/10/15 03:16:58;;;;;;;16.63;10.25;;;7.20;77.90;;;;;;5075515;28;20518;-78
2021/10/15 03:19:23;;;;;;;19.23;10.20;;;7.20;77.60;;;;;;5077145;28;20032;-78
2021/10/15 03:21:49;;;;;;;16.85;9.40;;;7.10;77.30;;;;;;5090661;28;20027;-78
2021/10/15 03:24:16;;;;;;;18.35;9.93;;;7.20;76.80;;;;;;5076904;28;20483;-78
2021/10/15 03:26:42;;;;;;;25.92;10.20;;;7.20;76.60;;;;;;5076992;28;20112;-78
2021/10/15 03:29:08;;;;;;;17.65;9.68;;;7.20;76.80;;;;;;5080941;28;20875;-78
2021/10/15 03:31:34;;;;;;;16.75;9.07;;;7.20;76.70;;;;;;5080643;28;20032;-78
2021/10/15 03:34:00;;;;;;;17.98;9.90;;;7.20;76.70;;;;;;5100368;28;20053;-78
2021/10/15 03:36:26;;;;;;;18.63;11.10;;;7.20;78.50;;;;;;5083182;28;20087;-78
2021/10/15 03:38:51;;;;;;;22.10;11.73;;;7.20;78.60;;;;;;5080717;28;20027;-79
2021/10/15 03:41:17;;;;;;;20.38;10.88;;;7.20;78.10;;;;;;5080668;28;20070;-78
2021/10/15 03:43:43;;;;;;;23.35;10.82;;;7.20;77.40;;;;;;5097187;28;20012;-78
2021/10/15 03:46:09;;;;;;;18.10;10.00;;;7.20;77.00;;;;;;5084104;28;20478;-78
2021/10/15 03:48:35;;;;;;;18.00;10.43;;;7.30;76.80;;;;;;5080822;28;20071;-78
2021/10/15 03:51:01;;;;;;;21.20;10.70;;;7.30;77.40;;;;;;5080482;28;20419;-78
2021/10/15 03:53:27;;;;;;;20.38;12.07;;;7.30;78.20;;;;;;5080551;28;20375;-78
2021/10/15 03:55:53;;;;;;;20.50;11.30;;;7.30;80.20;;;;;;5080178;28;20033;-79
2021/10/15 03:58:19;;;;;;;20.50;11.25;;;7.30;80.60;;;;;;5080565;28;20028;-78
2021/10/15 04:00:45;;;;;;;20.85;11.55;;;7.30;80.10;;;;;;5081420;28;20055;-78
2021/10/15 04:03:10;;;;;;;18.60;10.75;;;7.30;79.90;;;;;;5092469;28;20076;-78
2021/10/15 04:05:36;;;;;;;19.40;11.93;;;7.30;79.70;;;;;;5080270;28;20032;-78
2021/10/15 04:08:03;;;;;;;21.10;11.27;;;7.20;78.60;;;;;;5088654;28;20024;-78
2021/10/15 04:10:29;;;;;;;20.42;11.02;;;7.20;79.50;;;;;;5084987;28;20029;-78
2021/10/15 04:12:55;;;;;;;23.65;11.35;;;7.20;79.60;;;;;;5080195;28;20099;-79
2021/10/15 04:15:20;;;;;;;16.80;10.38;;;7.20;78.60;;;;;;5079799;28;20028;-78
2021/10/15 04:17:46;;;;;;;18.10;10.23;;;7.20;78.20;;;;;;5080381;28;20016;-79
2021/10/15 04:20:12;;;;;;;15.82;9.60;;;7.10;79.00;;;;;;5082053;28;20016;-78
2021/10/15 04:22:38;;;;;;;19.08;10.65;;;7.20;79.90;;;;;;5091442;28;20082;-78
2021/10/15 04:25:05;;;;;;;15.75;8.45;;;7.10;79.30;;;;;;5079618;28;20036;-78
2021/10/15 04:27:32;;;;;;;18.23;10.50;;;7.10;78.40;;;;;;5080040;28;20055;-78
2021/10/15 04:29:58;;;;;;;18.38;9.95;;;7.20;78.50;;;;;;5079912;28;20024;-78
2021/10/15 04:32:24;;;;;;;16.67;9.93;;;7.20;77.90;;;;;;5085823;28;20046;-78
2021/10/15 04:34:49;;;;;;;17.20;9.55;;;7.20;77.90;;;;;;5097452;28;20020;-76
2021/10/15 04:37:15;;;;;;;16.90;9.55;;;7.20;77.90;;;;;;5078463;28;20045;-84
2021/10/15 04:39:41;;;;;;;18.88;9.05;;;7.10;77.60;;;;;;5077322;28;20047;-83
2021/10/15 04:42:09;;;;;;;16.27;9.23;;;7.20;77.50;;;;;;5082535;28;20472;-76
2021/10/15 04:44:34;;;;;;;15.88;9.20;;;7.20;77.30;;;;;;5096453;28;20028;-81
2021/10/15 04:47:03;;;;;;;18.45;9.93;;;7.10;77.00;;;;;;5078125;28;20028;-84
2021/10/15 04:49:29;;;;;;;18.60;9.88;;;7.20;80.10;;;;;;5079367;28;20096;-79
2021/10/15 04:51:55;;;;;;;19.20;11.23;;;7.20;81.70;;;;;;5078269;28;20052;-82
2021/10/15 04:54:21;;;;;;;14.93;10.20;;;7.20;80.30;;;;;;5079073;28;20024;-84
2021/10/15 04:56:47;;;;;;;17.50;10.35;;;7.20;79.80;;;;;;5079373;28;20192;-86
2021/10/15 04:59:12;;;;;;;18.00;10.07;;;7.10;79.90;;;;;;5092631;28;20019;-80
2021/10/15 05:01:38;;;;;;;17.80;10.10;;;7.10;79.20;;;;;;5088214;28;20031;-78
2021/10/15 05:04:06;;;;;;;16.00;8.93;;;7.10;78.40;;;;;;5083358;28;20027;-81
2021/10/15 05:06:32;;;;;;;18.55;11.25;;;7.10;78.00;;;;;;5079287;28;20029;-77
2021/10/15 05:11:30;;;;;;;17.90;9.48;;;7.10;77.80;;;;;;5079421;28;20039;-79
2021/10/15 05:13:56;;;;;;;17.80;10.32;;;7.10;77.50;;;;;;5078884;28;20020;-78
2021/10/15 05:16:23;;;;;;;16.77;9.82;;;7.00;77.70;;;;;;5078957;28;20028;-81
2021/10/15 05:18:49;;;;;;;16.98;9.70;;;7.00;77.70;;;;;;5078974;28;20028;-76
2021/10/15 05:21:16;;;;;;;23.05;11.93;;;7.00;77.90;;;;;;5089319;28;20111;-79
2021/10/15 05:23:42;;;;;;;19.00;11.10;;;7.00;79.70;;;;;;5081510;28;20091;-79
2021/10/15 05:26:07;;;;;;;23.70;12.02;;;7.00;79.50;;;;;;5077470;28;20032;-79
2021/10/15 05:28:33;;;;;;;19.13;11.65;;;6.90;78.90;;;;;;5077331;28;20509;-79
2021/10/15 05:30:59;;;;;;;20.05;10.70;;;6.90;79.50;;;;;;5078411;28;20033;-79
2021/10/15 05:33:25;;;;;;;17.05;10.45;;;6.90;80.00;;;;;;5091909;28;20021;-78
2021/10/15 05:35:51;;;;;;;19.70;10.32;;;6.80;79.80;;;;;;5086216;28;20064;-78
2021/10/15 05:38:17;;;;;;;17.73;10.50;;;6.80;80.00;;;;;;5078335;28;20103;-77
2021/10/15 05:40:43;;;;;;;21.83;10.50;;;6.80;79.20;;;;;;5078463;28;20045;-78
2021/10/15 05:43:08;;;;;;;18.60;10.60;;;6.80;79.10;;;;;;5089647;28;20027;-78
2021/10/15 05:45:34;;;;;;;15.98;9.85;;;6.80;78.90;;;;;;5086048;28;20070;-78
2021/10/15 05:48:00;;;;;;;19.42;9.88;;;6.70;78.80;;;;;;5078226;28;20086;-78
2021/10/15 05:50:28;;;;;;;15.88;9.77;;;6.70;78.50;;;;;;5078131;28;20159;-78
2021/10/15 05:52:54;;;;;;;15.30;9.60;;;6.70;78.40;;;;;;5078036;28;20025;-78
2021/10/15 06:00:28;;;;;;;19.83;10.65;;;6.60;78.30;;;;;;5077519;28;20017;-78
2021/10/15 06:02:54;;;;;;;15.20;9.35;;;6.60;78.10;;;;;;5090340;28;20108;-78
2021/10/15 06:15:45;;;;;;;17.83;11.55;;;6.50;80.00;;;;;;5079085;28;20067;-78
2021/10/15 06:18:18;;;;;;;19.00;11.30;;;6.50;79.20;;;;;;5077814;28;20064;-78
2021/10/15 06:20:45;;;;;;;21.10;11.13;;;6.50;79.00;;;;;;5082846;28;20088;-78
2021/10/15 06:23:11;;;;;;;21.45;11.25;;;6.50;80.00;;;;;;5084388;28;20107;-78
2021/10/15 06:25:37;;;;;;;20.48;11.13;;;6.60;82.60;;;;;;5077733;28;20031;-78
2021/10/15 06:28:04;;;;;;;21.48;11.23;;;6.60;81.30;;;;;;5077548;28;20082;-78
2021/10/15 06:30:31;;;;;;;21.33;11.00;;;6.50;80.40;;;;;;5077618;28;20024;-78
2021/10/15 06:32:57;;;;;;;19.75;10.63;;;6.50;79.70;;;;;;5088208;28;20024;-78
2021/10/15 06:35:23;;;;;;;19.80;11.73;;;6.50;79.40;;;;;;5090139;28;20020;-78
2021/10/15 06:37:49;;;;;;;19.30;9.82;;;6.40;79.20;;;;;;5077443;28;20032;-78
2021/10/15 06:40:15;;;;;;;18.75;11.38;;;6.50;79.10;;;;;;5077660;28;20028;-78
2021/10/15 06:42:41;;;;;;;24.15;10.73;;;6.40;79.10;;;;;;5084892;28;20016;-78
2021/10/15 06:45:07;;;;;;;17.38;10.60;;;6.50;79.00;;;;;;5089626;28;20447;-78
2021/10/15 06:47:33;;;;;;;20.60;11.88;;;6.40;78.90;;;;;;5077323;28;20024;-78
2021/10/15 06:49:59;;;;;;;19.13;11.40;;;6.50;79.30;;;;;;5077479;28;20017;-78
2021/10/15 06:52:25;;;;;;;21.67;12.02;;;6.50;79.70;;;;;;5075882;28;20024;-78
2021/10/15 06:54:51;;;;;;;22.02;12.43;;;6.40;79.90;;;;;;5077400;28;20095;-78
2021/10/15 06:57:17;;;;;;;21.40;11.65;;;6.50;81.90;;;;;;5077187;28;20480;-78
2021/10/15 06:59:43;;;;;;;21.67;12.65;;;6.50;80.10;;;;;;5077623;28;20485;-78
2021/10/15 07:02:09;;;;;;;17.15;11.07;;;6.50;79.70;;;;;;5089703;28;20016;-78
2021/10/15 07:04:35;;;;;;;21.55;10.00;;;6.50;79.40;;;;;;5077187;28;20024;-78
2021/10/15 07:07:02;;;;;;;19.33;9.57;;;6.50;79.30;;;;;;5076441;28;20090;-78
2021/10/15 07:09:28;;;;;;;15.63;9.65;;;6.50;79.30;;;;;;5090132;28;20021;-78
2021/10/15 07:11:54;;;;;;;16.63;10.00;;;6.50;79.40;;;;;;5077073;28;20498;-78
2021/10/15 07:14:20;;;;;;;17.30;9.10;;;6.50;79.30;;;;;;5077235;28;20020;-78
2021/10/15 07:16:46;;;;;;;16.25;10.05;;;6.60;79.30;;;;;;5076964;28;20471;-78
2021/10/15 07:19:12;;;;;;;15.07;9.32;;;6.60;79.30;;;;;;5077072;28;20100;-78
2021/10/15 07:21:38;;;;;;;23.65;11.02;;;6.60;79.10;;;;;;5090626;28;20035;-78
2021/10/15 07:24:05;;;;;;;19.25;10.70;;;6.60;79.10;;;;;;5076887;28;20408;-78
2021/10/15 07:26:30;;;;;;;15.30;9.23;;;6.70;79.20;;;;;;5077155;28;20394;-78
2021/10/15 07:28:56;;;;;;;16.90;10.43;;;6.70;79.30;;;;;;5077067;28;20103;-78
2021/10/15 07:31:22;;;;;;;16.52;10.02;;;6.80;79.50;;;;;;5076611;28;20056;-78
2021/10/15 07:33:48;;;;;;;19.00;9.63;;;6.80;79.60;;;;;;5093501;28;20028;-78
2021/10/15 07:36:15;;;;;;;17.33;8.75;;;6.80;79.50;;;;;;5082333;28;20045;-78
2021/10/15 07:38:41;;;;;;;16.15;9.10;;;6.90;79.50;;;;;;5076983;28;20024;-78
2021/10/15 07:41:08;;;;;;;12.98;8.90;;;6.90;79.50;;;;;;5077055;28;20024;-78
2021/10/15 07:43:34;;;;;;;14.88;8.98;;;7.00;79.60;;;;;;5090276;28;20098;-78
2021/10/15 07:46:01;;;;;;;16.23;8.98;;;7.00;79.50;;;;;;5080991;28;20496;-78
2021/10/15 07:48:27;;;;;;;15.13;9.82;;;7.10;79.60;;;;;;5076870;28;20126;-78
2021/10/15 07:50:53;;;;;;;12.98;8.60;;;7.10;79.50;;;;;;5076783;28;20048;-78
2021/10/15 07:53:19;;;;;;;14.68;9.00;;;7.20;79.50;;;;;;5076730;28;20075;-78
2021/10/15 07:55:45;;;;;;;17.80;10.50;;;7.30;79.40;;;;;;5076483;28;20036;-78
2021/10/15 07:58:11;;;;;;;21.17;13.93;;;7.40;80.40;;;;;;5076846;28;20032;-78
2021/10/15 08:00:38;;;;;;;21.35;12.30;;;7.60;83.00;;;;;;5076782;28;20024;-78
2021/10/15 08:03:05;;;;;;;21.50;12.48;;;7.80;83.60;;;;;;5088238;28;20464;-78
2021/10/15 08:05:31;;;;;;;24.10;14.05;;;8.00;84.40;;;;;;5076717;28;20036;-78
2021/10/15 08:07:56;;;;;;;22.77;13.75;;;8.30;86.70;;;;;;5084009;28;20094;-78
2021/10/15 08:10:22;;;;;;;18.55;12.40;;;8.50;85.90;;;;;;5082042;28;20029;-78
2021/10/15 08:12:48;;;;;;;16.55;11.10;;;8.60;85.20;;;;;;5076696;28;20031;-78
2021/10/15 08:15:15;;;;;;;17.77;11.73;;;8.80;85.00;;;;;;5078280;28;20043;-78
2021/10/15 08:17:43;;;;;;;16.80;11.55;;;9.00;85.10;;;;;;5080280;28;20029;-78
2021/10/15 08:20:10;;;;;;;19.10;12.63;;;9.20;84.00;;;;;;5081207;28;20029;-78
2021/10/15 08:22:36;;;;;;;20.38;11.27;;;9.30;83.90;;;;;;5092108;28;20021;-78
2021/10/15 08:25:02;;;;;;;18.80;11.40;;;9.50;83.40;;;;;;5079696;28;20031;-78
2021/10/15 08:27:28;;;;;;;14.93;10.07;;;9.70;82.90;;;;;;5080134;28;20069;-78
2021/10/15 08:29:53;;;;;;;20.15;12.23;;;9.80;82.60;;;;;;5079643;28;20029;-78
2021/10/15 08:32:19;;;;;;;18.63;10.65;;;10.00;82.50;;;;;;5085260;28;20098;-78
2021/10/15 08:34:45;;;;;;;20.75;10.93;;;10.00;82.10;;;;;;5098144;28;20020;-78
2021/10/15 08:37:11;;;;;;;18.95;12.95;;;10.10;81.50;;;;;;5079452;28;20050;-78
2021/10/15 08:39:37;;;;;;;22.55;12.95;;;10.10;81.20;;;;;;5079396;28;20021;-78
2021/10/15 08:42:03;;;;;;;20.80;12.95;;;10.20;81.80;;;;;;5081920;28;20044;-78
2021/10/15 08:44:34;;;;;;;18.08;11.57;;;10.30;81.60;;;;;;5097667;28;20521;-78
2021/10/15 08:47:00;;;;;;;22.63;13.88;;;10.20;81.00;;;;;;5079391;28;20090;-78
2021/10/15 08:49:26;;;;;;;23.90;18.25;;;10.30;81.60;;;;;;5079500;28;20043;-78
2021/10/15 08:51:52;;;;;;;28.65;19.08;;;10.30;82.00;;;;;;5079618;28;20021;-78
2021/10/15 08:54:18;;;;;;;23.25;16.73;;;10.40;82.60;;;;;;5079205;28;20016;-78
2021/10/15 08:56:45;;;;;;;23.42;15.85;;;10.40;82.80;;;;;;5079397;28;20028;-78
2021/10/15 08:59:15;;;;;;;35.05;20.88;;;10.50;83.30;;;;;;5079132;28;20044;-78
2021/10/15 09:01:47;;;;;;;37.75;25.10;;;10.50;83.40;;;;;;5088800;28;20044;-78
2021/10/15 09:04:18;;;;;;;;;;;10.50;82.80;;;;;;5082465;28;20039;-78
2021/10/15 09:06:47;;;;;;;29.80;19.60;;;10.60;83.70;;;;;;5079286;28;19908;-78
2021/10/15 09:09:13;;;;;;;26.63;16.73;;;10.70;84.40;;;;;;5090376;28;20110;-78
2021/10/15 09:11:45;;;;;;;25.75;15.82;;;10.70;83.90;;;;;;5077743;28;20025;-78
2021/10/15 09:14:16;;;;;;;24.38;14.85;;;10.80;83.40;;;;;;5078884;28;20475;-78
2021/10/15 09:17:10;;;;;;;21.30;14.55;;;10.80;83.00;;;;;;5078560;28;20066;-78
2021/10/15 09:19:43;;;;;;;18.67;12.80;;;10.80;82.60;;;;;;5078831;28;20502;-78
2021/10/15 09:22:28;;;;;;;17.95;13.80;;;10.90;82.70;;;;;;5092101;28;20076;-78
2021/10/15 09:24:57;;;;;;;25.42;13.43;;;11.00;82.90;;;;;;5078166;28;20079;-78
2021/10/15 09:27:38;;;;;;;21.42;14.02;;;11.10;82.60;;;;;;5078763;28;20056;-78
2021/10/15 09:30:13;;;;;;;21.70;15.52;;;11.20;82.50;;;;;;5078342;28;20084;-78
2021/10/15 09:32:53;;;;;;;22.02;14.30;;;11.40;83.50;;;;;;5087096;28;20020;-78
2021/10/15 09:35:23;;;;;;;22.90;15.27;;;11.50;82.80;;;;;;5086612;28;20078;-78
2021/10/15 09:37:53;;;;;;;21.92;14.55;;;11.60;82.70;;;;;;5083647;28;20119;-78
2021/10/15 09:40:24;;;;;;;17.35;13.05;;;11.70;82.50;;;;;;5078523;28;20537;-79
2021/10/15 09:42:52;;;;;;;17.38;11.55;;;11.90;83.00;;;;;;5087260;28;20023;-78
2021/10/15 09:45:22;;;;;;;20.08;12.10;;;12.30;83.30;;;;;;5088181;28;20021;-78
2021/10/15 09:47:50;;;;;;;20.02;11.65;;;12.70;83.50;;;;;;5078282;28;20048;-78
2021/10/15 09:50:31;;;;;;;16.02;10.57;;;13.10;83.30;;;;;;5078349;28;20017;-79
2021/10/15 09:52:58;;;;;;;18.15;10.85;;;13.60;82.70;;;;;;5078180;28;20103;-79
2021/10/15 09:55:31;;;;;;;16.80;11.27;;;14.00;82.60;;;;;;5078174;28;20020;-79
2021/10/15 09:58:11;;;;;;;19.10;11.35;;;14.30;81.50;;;;;;5076851;28;20031;-79
2021/10/15 10:00:37;;;;;;;19.17;13.02;;;14.50;79.70;;;;;;5078053;28;20049;-79
2021/10/15 10:03:04;;;;;;;22.33;12.48;;;14.60;78.70;;;;;;5089693;28;20013;-79
2021/10/15 10:05:30;;;;;;;16.88;10.75;;;14.70;78.50;;;;;;5078087;28;20025;-79
2021/10/15 10:07:57;;;;;;;17.10;10.88;;;14.90;79.20;;;;;;5084446;28;20070;-79
2021/10/15 10:10:30;;;;;;;21.38;13.20;;;15.30;79.60;;;;;;5083739;28;20077;-79
2021/10/15 10:12:56;;;;;;;;;;;16.00;78.70;;;;;;5078353;28;20391;-79
2021/10/15 10:15:24;;;;;;;16.98;11.55;;;16.50;79.40;;;;;;5077470;28;19905;-79
2021/10/15 10:18:30;;;;;;;19.42;12.43;;;17.20;79.10;;;;;;5078033;28;20027;-79
2021/10/15 10:20:55;;;;;;;18.85;11.88;;;18.00;77.00;;;;;;5086646;28;20070;-79
2021/10/15 10:23:33;;;;;;;16.98;11.15;;;18.80;75.30;;;;;;5077754;28;20029;-79
2021/10/15 10:26:03;;;;;;;15.13;9.30;;;19.40;74.20;;;;;;5076463;28;20035;-80
2021/10/15 10:28:30;;;;;;;12.57;8.10;;;19.90;74.40;;;;;;5077570;28;20032;-80
2021/10/15 10:31:03;;;;;;;16.10;8.85;;;20.40;73.70;;;;;;5077383;28;20016;-79
2021/10/15 10:33:32;;;;;;;16.60;9.55;;;20.90;72.30;;;;;;5093165;28;20028;-79
2021/10/15 10:36:12;;;;;;;13.75;8.90;;;21.30;71.10;;;;;;5085833;28;20040;-80
2021/10/15 10:38:39;;;;;;;12.57;7.35;;;21.80;70.20;;;;;;5075668;28;20029;-80
2021/10/15 10:41:05;;;;;;;9.50;7.18;;;22.20;69.10;;;;;;5077457;28;20024;-80
2021/10/15 10:43:44;;;;;;;10.43;7.25;;;22.50;68.90;;;;;;5090610;28;20475;-80
2021/10/15 10:46:15;;;;;;;14.38;7.47;;;22.70;68.00;;;;;;5084529;28;20432;-80
2021/10/15 10:48:50;;;;;;;15.57;8.18;;;23.00;66.90;;;;;;5097724;28;20102;-80
2021/10/15 10:51:25;;;;;;;12.90;7.63;;;23.30;67.20;;;;;;5097878;28;20095;-80
2021/10/15 10:54:05;;;;;;;10.48;6.63;;;23.50;66.30;;;;;;5097526;28;20478;-80
2021/10/15 10:56:44;;;;;;;14.50;7.45;;;23.70;64.60;;;;;;5097682;28;20024;-81
2021/10/15 10:59:19;;;;;;;10.75;7.70;;;23.80;64.00;;;;;;5095778;28;20020;-81
2021/10/15 11:01:54;;;;;;;13.57;7.63;;;24.00;64.70;;;;;;5077132;28;20020;-81
2021/10/15 11:04:56;;;;;;;14.35;8.02;;;24.30;64.40;;;;;;5077399;28;20025;-81
2021/10/15 11:07:27;;;;;;;14.70;8.52;;;24.60;63.10;;;;;;5075465;28;20451;-80
2021/10/15 11:09:57;;;;;;;9.70;4.95;;;24.80;63.10;;;;;;5077218;28;20036;-80
2021/10/15 11:12:44;;;;;;;7.63;3.90;;;25.00;61.60;;;;;;5077301;28;20020;-81
2021/10/15 11:15:11;;;;;;;10.52;3.70;;;25.30;61.40;;;;;;5076840;28;20050;-80
2021/10/15 11:17:48;;;;;;;11.13;4.15;;;25.50;60.30;;;;;;5076918;28;20025;-80
2021/10/15 11:20:28;;;;;;;9.43;3.33;;;25.70;59.30;;;;;;5076671;28;20020;-80
2021/10/15 11:22:54;;;;;;;6.25;2.53;;;25.90;58.30;;;;;;5077167;28;20471;-80
2021/10/15 11:25:22;;;;;;;6.80;2.45;;;26.00;55.90;;;;;;5076400;28;20029;-81
2021/10/15 11:27:52;;;;;;;8.35;2.90;;;25.90;56.10;;;;;;5077061;28;20019;-81
2021/10/15 11:30:21;;;;;;;7.30;2.85;;;25.90;56.50;;;;;;5076799;28;20024;-80
2021/10/15 11:32:48;;;;;;;7.70;2.83;;;25.90;54.40;;;;;;5086442;28;20016;-80
2021/10/15 11:35:37;;;;;;;7.13;2.90;;;25.90;54.60;;;;;;5077906;28;20403;-81
2021/10/15 11:38:21;;;;;;;7.00;2.88;;;25.90;56.20;;;;;;5076491;28;20056;-81
2021/10/15 11:40:50;;;;;;;5.82;2.65;;;25.90;55.00;;;;;;5076927;28;20029;-80
2021/10/15 11:43:23;;;;;;;6.05;3.22;;;25.90;55.20;;;;;;5084759;28;20065;-80
2021/10/15 11:45:56;;;;;;;6.85;2.85;;;25.80;55.70;;;;;;5076918;28;20020;-81
2021/10/15 11:48:39;;;;;;;7.88;2.95;;;25.70;54.80;;;;;;5077749;28;20077;-81
2021/10/15 11:51:06;;;;;;;9.35;3.97;;;25.50;54.60;;;;;;5080728;28;20074;-80
2021/10/15 11:53:38;;;;;;;7.80;3.42;;;25.20;55.30;;;;;;5079956;28;20051;-80
2021/10/15 11:56:07;;;;;;;7.65;3.60;;;25.00;55.80;;;;;;5080373;28;20409;-81
2021/10/15 11:58:50;;;;;;;5.45;3.20;;;24.80;54.50;;;;;;5080879;28;20028;-81
2021/10/15 12:01:19;;;;;;;7.80;3.38;;;24.60;55.40;;;;;;5085849;28;20028;-81
2021/10/15 12:03:50;;;;;;;7.50;3.50;;;24.50;55.80;;;;;;5100728;28;20065;-81
2021/10/15 12:06:23;;;;;;;8.02;3.42;;;24.40;54.50;;;;;;5100944;28;20026;-81
2021/10/15 12:08:51;;;;;;;9.32;3.45;;;24.40;55.60;;;;;;5100574;28;20020;-81
2021/10/15 12:11:18;;;;;;;7.88;3.42;;;24.40;55.50;;;;;;5100658;28;20032;-81
2021/10/15 12:13:45;;;;;;;7.25;3.63;;;24.40;55.20;;;;;;5100513;28;20483;-80
2021/10/15 12:16:26;;;;;;;7.32;4.05;;;24.40;55.80;;;;;;5100373;28;20088;-80
2021/10/15 12:18:59;;;;;;;7.18;3.30;;;24.50;55.30;;;;;;5100444;28;20050;-80
2021/10/15 12:21:34;;;;;;;5.70;3.10;;;24.50;54.50;;;;;;5100586;28;20024;-80
2021/10/15 12:24:00;;;;;;;7.93;3.65;;;24.50;54.90;;;;;;5100134;28;20645;-81
2021/10/15 12:26:26;;;;;;;8.05;3.53;;;24.40;53.80;;;;;;5100293;28;20012;-81
2021/10/15 12:28:53;;;;;;;6.13;3.20;;;24.40;54.30;;;;;;5100404;28;20383;-81
2021/10/15 12:31:24;;;;;;;6.70;3.03;;;24.50;54.80;;;;;;5100003;28;20031;-81
2021/10/15 12:34:11;;;;;;;5.30;2.83;;;24.60;54.30;;;;;;5093327;28;20028;-81
2021/10/15 12:36:39;;;;;;;7.57;2.88;;;24.60;53.50;;;;;;5079595;28;20037;-81
2021/10/15 12:39:25;;;;;;;6.40;3.22;;;24.60;52.40;;;;;;5079745;28;20154;-81
2021/10/15 12:41:54;;;;;;;6.63;2.95;;;24.50;53.50;;;;;;5080252;28;20047;-81
2021/10/15 12:44:32;;;;;;;7.88;3.08;;;24.40;53.80;;;;;;5086452;28;20027;-81
2021/10/15 12:47:07;;;;;;;6.32;3.15;;;24.40;53.10;;;;;;5087736;28;20495;-81
2021/10/15 12:49:57;;;;;;;7.03;2.72;;;24.20;52.10;;;;;;5099875;28;20387;-81
2021/10/15 12:52:41;;;;;;;7.65;3.05;;;24.20;54.30;;;;;;5084474;28;20177;-81
2021/10/15 12:55:17;;;;;;;6.20;2.85;;;24.10;54.70;;;;;;5099726;28;20379;-81
2021/10/15 12:57:44;;;;;;;7.35;3.20;;;24.00;54.70;;;;;;5099746;28;20052;-81
2021/10/15 13:00:12;;;;;;;7.53;3.35;;;24.00;54.50;;;;;;5088527;28;20029;-81
2021/10/15 13:02:38;;;;;;;7.97;3.20;;;23.90;54.80;;;;;;5079218;28;20365;-80
2021/10/15 13:05:07;;;;;;;8.18;3.00;;;23.70;54.80;;;;;;5078029;28;20040;-80